createdAt,value
2023-03-01T00:02:14.557Z,16.13
2023-03-01T00:05:16.026Z,16.80
2023-03-01T00:08:17.469Z,17.02
2023-03-01T00:11:24.967Z,16.45
2023-03-01T00:14:26.722Z,17.45
2023-03-01T00:17:28.716Z,17.40
2023-03-01T00:20:30.191Z,16.02
2023-03-01T00:23:32.653Z,17.02
2023-03-01T00:26:34.217Z,16.35
2023-03-01T00:29:35.737Z,16.00
2023-03-01T00:32:37.236Z,16.38
2023-03-01T00:35:38.905Z,17.38
2023-03-01T00:38:43.887Z,15.90
2023-03-01T00:41:45.560Z,18.30
2023-03-01T00:44:47.040Z,18.65
2023-03-01T00:47:50.041Z,17.67
2023-03-01T00:50:51.516Z,17.58
2023-03-01T00:53:56.075Z,17.40
2023-03-01T00:56:57.514Z,17.80
2023-03-01T00:59:59.082Z,17.83
2023-03-01T01:03:00.886Z,17.38
2023-03-01T01:06:09.993Z,17.17
2023-03-01T01:09:17.967Z,17.42
2023-03-01T01:12:19.509Z,17.40
2023-03-01T01:15:20.993Z,18.15
2023-03-01T01:18:22.468Z,17.75
2023-03-01T01:21:25.560Z,16.65
2023-03-01T01:24:27.029Z,19.70
2023-03-01T01:27:28.569Z,17.73
2023-03-01T01:30:30.077Z,18.95
2023-03-01T01:33:32.405Z,18.83
2023-03-01T01:36:35.391Z,18.77
2023-03-01T01:39:36.942Z,20.13
2023-03-01T01:42:38.556Z,19.05
2023-03-01T01:45:40.522Z,19.83
2023-03-01T01:48:49.583Z,19.15
2023-03-01T01:51:56.867Z,19.02
2023-03-01T01:55:06.945Z,20.08
2023-03-01T01:58:11.914Z,19.63
2023-03-01T02:01:13.584Z,18.98
2023-03-01T02:04:15.036Z,20.23
2023-03-01T02:07:22.587Z,18.35
2023-03-01T02:10:25.504Z,19.33
2023-03-01T02:13:27.716Z,19.83
2023-03-01T02:16:30.815Z,19.88
2023-03-01T02:19:45.856Z,20.17
2023-03-01T02:22:48.091Z,19.92
2023-03-01T02:25:59.205Z,21.42
2023-03-01T02:29:00.801Z,21.52
2023-03-01T02:32:05.169Z,20.10
2023-03-01T02:35:07.407Z,19.42
2023-03-01T02:38:10.121Z,19.98
2023-03-01T02:41:15.852Z,20.63
2023-03-01T02:44:17.827Z,20.88
2023-03-01T02:47:19.249Z,21.00
2023-03-01T02:50:23.684Z,20.20
2023-03-01T02:53:40.334Z,21.00
2023-03-01T02:56:44.045Z,19.40
2023-03-01T02:59:45.641Z,21.30
2023-03-01T03:02:50.016Z,20.85
2023-03-01T03:05:57.202Z,20.25
2023-03-01T03:08:59.243Z,19.77
2023-03-01T03:12:00.820Z,21.52
2023-03-01T03:15:02.694Z,20.13
2023-03-01T03:18:06.935Z,19.38
2023-03-01T03:21:13.416Z,19.92
2023-03-01T03:24:14.918Z,19.92
2023-03-01T03:27:16.382Z,20.23
2023-03-01T03:30:20.049Z,20.30
2023-03-01T03:33:21.523Z,20.75
2023-03-01T03:36:24.920Z,21.55
2023-03-01T03:39:28.160Z,20.05
2023-03-01T03:42:29.751Z,20.77
2023-03-01T03:45:34.304Z,21.38
2023-03-01T03:48:38.638Z,21.08
2023-03-01T03:54:41.826Z,20.73
2023-03-01T03:57:43.686Z,19.85
2023-03-01T04:00:45.736Z,22.38
2023-03-01T04:03:55.215Z,20.52
2023-03-01T04:06:56.719Z,20.17
2023-03-01T04:09:58.198Z,20.80
2023-03-01T04:12:59.752Z,21.13
2023-03-01T04:16:01.268Z,19.35
2023-03-01T04:19:02.864Z,19.40
2023-03-01T04:22:10.185Z,19.98
2023-03-01T04:25:14.977Z,21.40
2023-03-01T04:28:17.095Z,19.92
2023-03-01T04:31:22.164Z,19.63
2023-03-01T04:34:23.969Z,20.17
2023-03-01T04:37:26.202Z,20.65
2023-03-01T04:40:28.283Z,21.00
2023-03-01T04:43:29.927Z,20.42
2023-03-01T04:46:31.665Z,20.38
2023-03-01T04:49:33.304Z,21.33
2023-03-01T04:52:35.125Z,22.45
2023-03-01T04:55:36.842Z,20.60
2023-03-01T04:58:38.465Z,21.83
2023-03-01T05:01:39.951Z,22.67
2023-03-01T05:04:41.593Z,22.67
2023-03-01T05:07:43.108Z,23.63
2023-03-01T05:10:47.340Z,22.70
2023-03-01T05:16:52.271Z,22.73
2023-03-01T05:19:55.917Z,22.30
2023-03-01T05:23:00.366Z,22.25
2023-03-01T05:26:05.367Z,22.27
2023-03-01T05:29:09.447Z,22.25
2023-03-01T05:32:15.591Z,23.10
2023-03-01T05:35:18.889Z,22.95
2023-03-01T05:38:21.600Z,22.20
2023-03-01T05:41:23.031Z,22.23
2023-03-01T05:44:25.228Z,21.35
2023-03-01T05:47:26.679Z,21.42
2023-03-01T05:50:30.840Z,22.13
2023-03-01T05:56:35.241Z,20.92
2023-03-01T05:59:36.701Z,23.58
2023-03-01T06:02:38.850Z,21.60
2023-03-01T06:05:41.243Z,22.58
2023-03-01T06:08:42.807Z,22.17
2023-03-01T06:11:44.922Z,21.35
2023-03-01T06:14:48.291Z,21.40
2023-03-01T06:17:50.272Z,20.42
2023-03-01T06:20:55.921Z,22.73
2023-03-01T06:23:57.413Z,20.15
2023-03-01T06:26:58.866Z,22.35
2023-03-01T06:30:00.309Z,20.92
2023-03-01T06:33:03.128Z,21.63
2023-03-01T06:36:04.984Z,21.90
2023-03-01T06:39:06.675Z,20.98
2023-03-01T06:42:11.012Z,21.20
2023-03-01T06:45:12.800Z,21.17
2023-03-01T06:48:14.232Z,22.00
2023-03-01T06:51:15.796Z,22.27
2023-03-01T06:54:18.747Z,20.90
2023-03-01T06:57:20.204Z,20.77
2023-03-01T07:00:22.098Z,20.92
2023-03-01T07:03:23.888Z,20.73
2023-03-01T07:06:25.406Z,23.10
2023-03-01T07:09:26.981Z,22.02
2023-03-01T07:12:28.436Z,21.92
2023-03-01T07:15:29.951Z,20.98
2023-03-01T07:18:31.444Z,21.02
2023-03-01T07:21:33.072Z,22.85
2023-03-01T07:24:34.909Z,21.23
2023-03-01T07:27:36.952Z,19.90
2023-03-01T07:30:38.468Z,21.35
2023-03-01T07:33:39.984Z,20.77
2023-03-01T07:36:44.039Z,21.13
2023-03-01T07:39:45.598Z,21.55
2023-03-01T07:42:47.069Z,21.02
2023-03-01T07:45:55.789Z,20.83
2023-03-01T07:48:58.942Z,21.33
2023-03-01T07:52:00.553Z,20.92
2023-03-01T07:55:02.020Z,21.95
2023-03-01T07:58:04.016Z,21.50
2023-03-01T08:01:08.138Z,20.70
2023-03-01T08:07:11.168Z,19.95
2023-03-01T08:10:12.658Z,18.67
2023-03-01T08:13:14.129Z,20.83
2023-03-01T08:16:16.800Z,20.90
2023-03-01T08:19:19.069Z,18.02
2023-03-01T08:22:20.642Z,19.27
2023-03-01T08:25:22.131Z,19.25
2023-03-01T08:28:23.553Z,19.70
2023-03-01T08:31:29.749Z,19.20
2023-03-01T08:34:32.441Z,19.85
2023-03-01T08:37:34.158Z,19.35
2023-03-01T08:40:35.624Z,19.13
2023-03-01T08:43:37.100Z,19.13
2023-03-01T08:46:41.457Z,20.55
2023-03-01T08:49:42.998Z,20.02
2023-03-01T08:52:44.537Z,19.67
2023-03-01T08:55:46.262Z,20.90
2023-03-01T08:58:49.627Z,19.10
2023-03-01T09:01:51.190Z,18.13
2023-03-01T09:04:52.674Z,19.05
2023-03-01T09:07:54.183Z,20.00
2023-03-01T09:10:55.875Z,17.02
2023-03-01T09:13:57.398Z,18.38
2023-03-01T09:16:58.967Z,17.73
2023-03-01T09:20:00.628Z,17.10
2023-03-01T09:23:02.370Z,18.65
2023-03-01T09:26:04.359Z,17.45
2023-03-01T09:29:05.907Z,19.27
2023-03-01T09:32:09.121Z,18.42
2023-03-01T09:35:10.680Z,17.97
2023-03-01T09:38:12.592Z,18.05
2023-03-01T09:41:26.299Z,17.75
2023-03-01T09:44:46.415Z,18.30
2023-03-01T09:47:49.501Z,17.52
2023-03-01T09:50:52.516Z,18.00
2023-03-01T09:53:55.611Z,16.23
2023-03-01T09:57:12.527Z,17.27
2023-03-01T10:00:29.357Z,17.02
2023-03-01T10:03:50.195Z,18.67
2023-03-01T10:07:15.203Z,17.02
2023-03-01T10:10:27.965Z,19.65
2023-03-01T10:13:37.200Z,17.75
2023-03-01T10:16:49.211Z,18.60
2023-03-01T10:19:50.752Z,19.08
2023-03-01T10:22:56.390Z,18.58
2023-03-01T10:25:57.941Z,17.88
2023-03-01T10:29:11.372Z,18.45
2023-03-01T10:32:13.280Z,18.13
2023-03-01T10:35:23.043Z,16.48
2023-03-01T10:38:24.776Z,17.80
2023-03-01T10:41:29.453Z,18.33
2023-03-01T10:44:40.224Z,17.05
2023-03-01T10:47:41.711Z,17.70
2023-03-01T10:50:49.245Z,17.95
2023-03-01T10:53:52.698Z,18.67
2023-03-01T10:56:57.189Z,18.23
2023-03-01T11:00:25.875Z,18.75
2023-03-01T11:03:38.868Z,19.50
2023-03-01T11:06:42.326Z,18.35
2023-03-01T11:09:43.806Z,19.17
2023-03-01T11:12:45.245Z,19.33
2023-03-01T11:16:08.639Z,19.10
2023-03-01T11:19:10.165Z,19.10
2023-03-01T11:22:21.077Z,20.00
2023-03-01T11:25:28.753Z,19.42
2023-03-01T11:28:31.245Z,18.33
2023-03-01T11:31:34.580Z,18.98
2023-03-01T11:34:52.590Z,18.45
2023-03-01T11:38:03.017Z,19.48
2023-03-01T11:41:20.548Z,17.17
2023-03-01T11:44:29.107Z,17.55
2023-03-01T11:47:40.206Z,17.77
2023-03-01T11:50:49.365Z,17.85
2023-03-01T11:54:15.340Z,17.05
2023-03-01T11:57:44.285Z,17.08
2023-03-01T12:00:45.931Z,17.58
2023-03-01T12:04:23.043Z,16.63
2023-03-01T12:07:42.512Z,17.90
2023-03-01T12:11:15.007Z,17.95
2023-03-01T12:14:50.249Z,16.65
2023-03-01T12:18:25.444Z,17.30
2023-03-01T12:21:54.415Z,17.15
2023-03-01T12:25:14.388Z,16.17
2023-03-01T12:28:18.782Z,17.42
2023-03-01T12:31:44.918Z,16.88
2023-03-01T12:34:56.652Z,17.10
2023-03-01T12:38:19.362Z,17.48
2023-03-01T12:41:39.641Z,18.40
2023-03-01T12:44:52.626Z,16.45
2023-03-01T12:47:59.919Z,17.35
2023-03-01T12:51:06.450Z,18.90
2023-03-01T12:54:16.854Z,17.65
2023-03-01T12:57:47.021Z,17.80
2023-03-01T13:01:20.655Z,18.50
2023-03-01T13:04:59.340Z,19.30
2023-03-01T13:08:03.716Z,19.35
2023-03-01T13:11:12.930Z,18.40
2023-03-01T13:14:26.391Z,20.33
2023-03-01T13:17:34.427Z,19.13
2023-03-01T13:20:48.128Z,19.80
2023-03-01T13:23:49.663Z,19.27
2023-03-01T13:27:25.791Z,19.30
2023-03-01T13:30:36.603Z,19.88
2023-03-01T13:33:46.874Z,18.65
2023-03-01T13:36:50.595Z,18.45
2023-03-01T13:39:52.913Z,19.30
2023-03-01T13:43:05.281Z,18.02
2023-03-01T13:46:21.515Z,17.35
2023-03-01T13:49:31.512Z,18.52
2023-03-01T13:52:45.629Z,18.30
2023-03-01T13:55:57.003Z,18.67
2023-03-01T13:58:59.056Z,16.42
2023-03-01T14:02:01.900Z,18.67
2023-03-01T14:05:03.980Z,18.70
2023-03-01T14:08:18.461Z,19.10
2023-03-01T14:14:43.041Z,18.70
2023-03-01T14:17:54.206Z,18.35
2023-03-01T14:20:55.719Z,17.88
2023-03-01T14:23:58.585Z,18.05
2023-03-01T14:27:02.508Z,20.17
2023-03-01T14:30:13.953Z,18.77
2023-03-01T14:33:25.546Z,19.40
2023-03-01T14:36:30.315Z,20.75
2023-03-01T14:39:33.233Z,19.60
2023-03-01T14:42:37.134Z,17.88
2023-03-01T14:45:38.673Z,18.48
2023-03-01T14:48:40.353Z,17.98
2023-03-01T14:51:47.415Z,18.90
2023-03-01T14:54:52.643Z,19.38
2023-03-01T14:57:54.649Z,18.90
2023-03-01T15:01:00.430Z,18.77
2023-03-01T15:04:03.258Z,18.80
2023-03-01T15:07:06.070Z,17.60
2023-03-01T15:10:18.146Z,19.20
2023-03-01T15:13:25.877Z,17.50
2023-03-01T15:16:31.536Z,17.83
2023-03-01T15:19:33.255Z,17.77
2023-03-01T15:22:36.192Z,18.10
2023-03-01T15:25:39.582Z,17.98
2023-03-01T15:28:44.373Z,18.08
2023-03-01T15:31:57.019Z,18.38
2023-03-01T15:34:59.943Z,18.45
2023-03-01T15:38:02.495Z,18.45
2023-03-01T15:41:22.591Z,18.02
2023-03-01T15:44:42.655Z,18.40
2023-03-01T15:47:51.048Z,19.13
2023-03-01T15:51:00.608Z,18.45
2023-03-01T15:54:11.845Z,19.40
2023-03-01T15:57:15.878Z,18.52
2023-03-01T16:03:22.341Z,18.92
2023-03-01T16:06:23.795Z,18.55
2023-03-01T16:09:26.757Z,19.63
2023-03-01T16:12:31.092Z,19.67
2023-03-01T16:15:37.380Z,22.45
2023-03-01T16:18:39.695Z,21.98
2023-03-01T16:21:43.171Z,24.58
2023-03-01T16:24:54.800Z,24.95
2023-03-01T16:28:09.888Z,25.95
2023-03-01T16:31:12.853Z,25.10
2023-03-01T16:34:14.933Z,26.30
2023-03-01T16:37:17.235Z,27.83
2023-03-01T16:40:25.214Z,27.38
2023-03-01T16:43:26.849Z,25.90
2023-03-01T16:46:29.899Z,26.08
2023-03-01T16:49:31.367Z,25.65
2023-03-01T16:52:34.779Z,25.75
2023-03-01T16:55:37.292Z,25.23
2023-03-01T16:58:40.206Z,26.40
2023-03-01T17:01:42.374Z,25.83
2023-03-01T17:04:43.852Z,27.48
2023-03-01T17:07:45.393Z,27.83
2023-03-01T17:10:46.884Z,27.15
2023-03-01T17:13:48.981Z,28.48
2023-03-01T17:16:50.478Z,26.63
2023-03-01T17:19:52.019Z,26.73
2023-03-01T17:22:53.514Z,27.40
2023-03-01T17:25:55.843Z,27.63
2023-03-01T17:28:59.110Z,26.23
2023-03-01T17:32:01.030Z,26.77
2023-03-01T17:35:02.694Z,27.80
2023-03-01T17:38:05.567Z,27.88
2023-03-01T17:41:07.373Z,32.25
2023-03-01T17:44:09.430Z,27.92
2023-03-01T17:47:11.099Z,29.02
2023-03-01T17:50:12.652Z,39.40
2023-03-01T17:53:14.385Z,28.73
2023-03-01T17:56:17.598Z,32.58
2023-03-01T17:59:19.194Z,47.45
2023-03-01T18:02:20.894Z,30.77
2023-03-01T18:05:22.380Z,27.73
2023-03-01T18:08:23.956Z,29.08
2023-03-01T18:11:25.804Z,28.65
2023-03-01T18:14:29.795Z,29.00
2023-03-01T18:17:31.371Z,29.23
2023-03-01T18:20:34.298Z,34.63
2023-03-01T18:23:36.803Z,31.55
2023-03-01T18:26:39.919Z,30.63
2023-03-01T18:29:41.771Z,27.85
2023-03-01T18:32:44.929Z,25.90
2023-03-01T18:35:46.657Z,25.17
2023-03-01T18:38:48.831Z,24.42
2023-03-01T18:41:50.694Z,25.75
2023-03-01T18:44:53.797Z,26.13
2023-03-01T18:47:55.565Z,29.67
2023-03-01T18:50:58.082Z,31.58
2023-03-01T18:53:59.685Z,30.70
2023-03-01T18:57:01.310Z,26.33
2023-03-01T19:00:04.488Z,28.60
2023-03-01T19:03:05.986Z,31.23
2023-03-01T19:06:07.505Z,29.92
2023-03-01T19:09:09.362Z,26.35
2023-03-01T19:12:10.860Z,28.50
2023-03-01T19:15:13.700Z,30.10
2023-03-01T19:18:15.204Z,31.42
2023-03-01T19:21:22.125Z,29.73
2023-03-01T19:24:23.557Z,28.63
2023-03-01T19:27:25.140Z,25.63
2023-03-01T19:30:27.288Z,27.08
2023-03-01T19:33:30.245Z,27.52
2023-03-01T19:36:35.092Z,28.65
2023-03-01T19:39:36.619Z,26.05
2023-03-01T19:42:38.058Z,27.00
2023-03-01T19:45:39.608Z,25.38
2023-03-01T19:48:41.529Z,25.83
2023-03-01T19:51:43.219Z,26.08
2023-03-01T19:54:45.810Z,25.65
2023-03-01T19:57:47.275Z,26.17
2023-03-01T20:00:49.049Z,25.73
2023-03-01T20:03:50.539Z,26.63
2023-03-01T20:06:52.142Z,27.02
2023-03-01T20:09:53.751Z,26.15
2023-03-01T20:12:55.289Z,25.33
2023-03-01T20:15:56.860Z,23.85
2023-03-01T20:19:00.580Z,26.58
2023-03-01T20:22:03.375Z,26.17
2023-03-01T20:25:05.778Z,27.48
2023-03-01T20:28:07.313Z,25.63
2023-03-01T20:31:11.071Z,24.55
2023-03-01T20:34:12.662Z,26.75
2023-03-01T20:37:14.346Z,24.95
2023-03-01T20:40:16.120Z,24.92
2023-03-01T20:43:17.605Z,25.70
2023-03-01T20:46:19.360Z,25.73
2023-03-01T20:49:21.626Z,26.77
2023-03-01T20:52:23.280Z,23.20
2023-03-01T20:55:27.174Z,27.80
2023-03-01T20:58:32.825Z,29.80
2023-03-01T21:01:38.562Z,30.15
2023-03-01T21:04:40.204Z,27.98
2023-03-01T21:07:42.774Z,28.42
2023-03-01T21:10:50.043Z,28.48
2023-03-01T21:13:55.181Z,28.90
2023-03-01T21:16:56.693Z,26.98
2023-03-01T21:19:58.144Z,27.42
2023-03-01T21:22:59.638Z,28.38
2023-03-01T21:26:06.998Z,28.63
2023-03-01T21:29:19.493Z,28.63
2023-03-01T21:32:21.160Z,32.42
2023-03-01T21:35:23.568Z,32.25
2023-03-01T21:38:25.049Z,31.73
2023-03-01T21:41:29.497Z,30.83
2023-03-01T21:44:32.768Z,30.08
2023-03-01T21:47:35.945Z,30.37
2023-03-01T21:50:37.363Z,30.02
2023-03-01T21:53:38.809Z,27.25
2023-03-01T21:56:40.947Z,28.70
2023-03-01T21:59:42.402Z,28.10
2023-03-01T22:02:44.031Z,27.92
2023-03-01T22:05:58.217Z,30.52
2023-03-01T22:09:04.516Z,29.40
2023-03-01T22:12:06.494Z,29.38
2023-03-01T22:15:08.630Z,29.83
2023-03-01T22:18:12.075Z,29.80
2023-03-01T22:21:13.832Z,29.48
2023-03-01T22:24:16.376Z,30.63
2023-03-01T22:27:17.835Z,28.60
2023-03-01T22:30:19.320Z,28.85
2023-03-01T22:33:21.140Z,30.45
2023-03-01T22:36:23.106Z,29.75
2023-03-01T22:39:24.670Z,29.70
2023-03-01T22:42:26.158Z,31.20
2023-03-01T22:45:32.323Z,30.15
2023-03-01T22:48:33.907Z,29.17
2023-03-01T22:51:37.672Z,28.88
2023-03-01T22:54:39.151Z,29.05
2023-03-01T22:57:40.610Z,28.60
2023-03-01T23:00:42.097Z,29.35
2023-03-01T23:03:44.231Z,28.98
2023-03-01T23:06:55.634Z,28.98
2023-03-01T23:10:02.105Z,28.00
2023-03-01T23:13:03.597Z,27.27
2023-03-01T23:16:05.554Z,28.15
2023-03-01T23:19:07.065Z,25.02
2023-03-01T23:22:08.630Z,28.05
2023-03-01T23:25:13.092Z,28.95
2023-03-01T23:28:14.570Z,30.23
2023-03-01T23:31:16.630Z,28.92
2023-03-01T23:34:19.210Z,29.77
2023-03-01T23:37:20.730Z,29.73
2023-03-01T23:40:22.227Z,29.15
2023-03-01T23:43:23.719Z,27.70
2023-03-01T23:46:27.847Z,28.73
2023-03-01T23:52:38.457Z,29.27
2023-03-01T23:55:44.984Z,28.50
2023-03-01T23:58:46.451Z,29.30
